地図

経路データ

SID SEASON NUMBER BASIN SUBBASIN NAME ISO_TIME NATURE LAT LON WMO_WIND WMO_PRES WMO_AGENCY TRACK_TYPE DIST2LAND LANDFALL IFLAG USA_AGENCY USA_ATCF_ID USA_LAT USA_LON USA_RECORD USA_STATUS USA_WIND USA_PRES USA_SSHS USA_R34_NE USA_R34_SE USA_R34_SW USA_R34_NW USA_R50_NE USA_R50_SE USA_R50_SW USA_R50_NW USA_R64_NE USA_R64_SE USA_R64_SW USA_R64_NW USA_POCI USA_ROCI USA_RMW USA_EYE TOKYO_LAT TOKYO_LON TOKYO_GRADE TOKYO_WIND TOKYO_PRES TOKYO_R50_DIR TOKYO_R50_LONG TOKYO_R50_SHORT TOKYO_R30_DIR TOKYO_R30_LONG TOKYO_R30_SHORT TOKYO_LAND CMA_LAT CMA_LON CMA_CAT CMA_WIND CMA_PRES HKO_LAT HKO_LON HKO_CAT HKO_WIND HKO_PRES NEWDELHI_LAT NEWDELHI_LON NEWDELHI_GRADE NEWDELHI_WIND NEWDELHI_PRES NEWDELHI_CI NEWDELHI_DP NEWDELHI_POCI REUNION_LAT REUNION_LON REUNION_TYPE REUNION_WIND REUNION_PRES REUNION_TNUM REUNION_CI REUNION_RMW REUNION_R34_NE REUNION_R34_SE REUNION_R34_SW REUNION_R34_NW REUNION_R50_NE REUNION_R50_SE REUNION_R50_SW REUNION_R50_NW REUNION_R64_NE REUNION_R64_SE REUNION_R64_SW REUNION_R64_NW BOM_LAT BOM_LON BOM_TYPE BOM_WIND BOM_PRES BOM_TNUM BOM_CI BOM_RMW BOM_R34_NE BOM_R34_SE BOM_R34_SW BOM_R34_NW BOM_R50_NE BOM_R50_SE BOM_R50_SW BOM_R50_NW BOM_R64_NE BOM_R64_SE BOM_R64_SW BOM_R64_NW BOM_ROCI BOM_POCI BOM_EYE BOM_POS_METHOD BOM_PRES_METHOD NADI_LAT NADI_LON NADI_CAT NADI_WIND NADI_PRES WELLINGTON_LAT WELLINGTON_LON WELLINGTON_WIND WELLINGTON_PRES DS824_LAT DS824_LON DS824_STAGE DS824_WIND DS824_PRES TD9636_LAT TD9636_LON TD9636_STAGE TD9636_WIND TD9636_PRES TD9635_LAT TD9635_LON TD9635_WIND TD9635_PRES TD9635_ROCI NEUMANN_LAT NEUMANN_LON NEUMANN_CLASS NEUMANN_WIND NEUMANN_PRES MLC_LAT MLC_LON MLC_CLASS MLC_WIND MLC_PRES USA_GUST BOM_GUST BOM_GUST_PER REUNION_GUST REUNION_GUST_PER USA_SEAHGT USA_SEARAD_NE USA_SEARAD_SE USA_SEARAD_SW USA_SEARAD_NW STORM_SPEED STORM_DIR
1937178N23155 1937 20 WP MM NOT_NAMED 1937-06-26 21:00:00 NR 22.7000 154.500 main 1951 1921 __________O___ -1 22.7000 154.500 7 14 252
1937178N23155 1937 20 WP MM NOT_NAMED 1937-06-27 00:00:00 NR 22.4850 153.790 main 1921 1900 __________P___ -1 22.4850 153.790 7 13 250
1937178N23155 1937 20 WP MM NOT_NAMED 1937-06-27 03:00:00 NR 22.2443 153.144 main 1903 1893 __________P___ -1 22.2444 153.144 7 12 244
1937178N23155 1937 20 WP MM NOT_NAMED 1937-06-27 06:00:00 NR 21.9564 152.627 main 1890 1890 __________P___ -1 21.9564 152.627 7 10 231
1937178N23155 1937 20 WP MM NOT_NAMED 1937-06-27 09:00:00 NR 21.6000 152.300 main 1908 1908 __________O___ -1 21.6000 152.300 7 9 207
1937178N23155 1937 20 WP MM NOT_NAMED 1937-06-27 12:00:00 NR 21.1704 152.192 main 1939 1939 __________P___ -1 21.1704 152.192 7 9 186
1937178N23155 1937 20 WP MM NOT_NAMED 1937-06-27 15:00:00 NR 20.7270 152.197 main 1986 1986 __________P___ -1 20.7270 152.197 7 8 0
1937178N23155 1937 20 WP MM NOT_NAMED 1937-06-27 18:00:00 NR 20.3452 152.178 main 2024 2024 __________P___ -1 20.3452 152.178 7 7 196
1937178N23155 1937 20 WP MM NOT_NAMED 1937-06-27 21:00:00 NR 20.1000 152.000 main 2032 2005 __________O___ -1 20.1000 152.000 7 7 251
1937178N23155 1937 20 WP MM NOT_NAMED 1937-06-28 00:00:00 NR 20.1150 151.486 main 2005 1948 __________P___ -1 20.1150 151.486 7 11 278
1937178N23155 1937 20 WP MM NOT_NAMED 1937-06-28 03:00:00 NR 20.2617 150.798 main 1948 1902 __________P___ -1 20.2617 150.798 7 14 284
1937178N23155 1937 20 WP MM NOT_NAMED 1937-06-28 06:00:00 NR 20.4524 150.011 main 1887 1837 __________P___ -1 20.4524 150.011 7 15 283
1937178N23155 1937 20 WP MM NOT_NAMED 1937-06-28 09:00:00 NR 20.6000 149.200 main 1837 1804 __________O___ -1 20.6000 149.200 7 14 276
1937178N23155 1937 20 WP MM NOT_NAMED 1937-06-28 12:00:00 NR 20.6062 148.478 main 1804 1773 __________P___ -1 20.6062 148.478 7 14 268
1937178N23155 1937 20 WP MM NOT_NAMED 1937-06-28 15:00:00 NR 20.5541 147.750 main 1769 1755 __________P___ -1 20.5541 147.750 7 14 263
1937178N23155 1937 20 WP MM NOT_NAMED 1937-06-28 18:00:00 NR 20.4500 147.022 main 1761 1743 __________P___ -1 20.4500 147.022 7 14 259
1937178N23155 1937 20 WP MM NOT_NAMED 1937-06-28 21:00:00 NR 20.3000 146.300 main 1746 1736 __________O___ -1 20.3000 146.300 7 13 256
1937178N23155 1937 20 WP MM NOT_NAMED 1937-06-29 00:00:00 NR 20.1316 145.650 main 1747 1738 __________P___ -1 20.1316 145.650 7 13 253
1937178N23155 1937 20 WP MM NOT_NAMED 1937-06-29 03:00:00 NR 19.9208 144.999 main 1748 1742 __________P___ -1 19.9208 144.999 7 14 250
1937178N23155 1937 20 WP MM NOT_NAMED 1937-06-29 06:00:00 NR 19.6748 144.298 main 1745 1733 __________P___ -1 19.6748 144.298 7 15 250
1937178N23155 1937 20 WP MM NOT_NAMED 1937-06-29 09:00:00 NR 19.4000 143.500 main 1739 1731 __________O___ -1 19.4000 143.500 7 18 249
1937178N23155 1937 20 WP MM NOT_NAMED 1937-06-29 12:00:00 NR 19.0484 142.527 main 1740 1732 __________P___ -1 19.0484 142.527 7 21 249
1937178N23155 1937 20 WP MM NOT_NAMED 1937-06-29 15:00:00 NR 18.6770 141.463 main 1736 1710 __________P___ -1 18.6770 141.463 7 22 251
1937178N23155 1937 20 WP MM NOT_NAMED 1937-06-29 18:00:00 NR 18.3418 140.367 main 1720 1631 __________P___ -1 18.3418 140.367 7 21 254
1937178N23155 1937 20 WP MM NOT_NAMED 1937-06-29 21:00:00 NR 18.1000 139.300 main 1621 1529 __________O___ -1 18.1000 139.300 7 19 261
1937178N23155 1937 20 WP MM NOT_NAMED 1937-06-30 00:00:00 NR 18.0453 138.379 main 1529 1447 __________P___ -1 18.0453 138.379 7 17 270
1937178N23155 1937 20 WP MM NOT_NAMED 1937-06-30 03:00:00 NR 18.0851 137.485 main 1447 1367 __________P___ -1 18.0851 137.485 7 17 274
1937178N23155 1937 20 WP MM NOT_NAMED 1937-06-30 06:00:00 NR 18.1576 136.573 main 1367 1283 __________P___ -1 18.1576 136.573 7 18 274
1937178N23155 1937 20 WP MM NOT_NAMED 1937-06-30 09:00:00 NR 18.2000 135.600 main 1274 1170 __________O___ -1 18.2000 135.600 4 20 268
1937178N23155 1937 20 WP MM NOT_NAMED 1937-06-30 12:00:00 NR 18.0959 134.448 main 1161 1056 __________P___ -1 18.0959 134.448 4 23 264
1937178N23155 1937 20 WP MM NOT_NAMED 1937-06-30 15:00:00 NR 17.9533 133.245 main 1046 932 __________P___ -1 17.9533 133.245 4 23 263
1937178N23155 1937 20 WP MM NOT_NAMED 1937-06-30 18:00:00 NR 17.8085 132.070 main 932 833 __________P___ -1 17.8085 132.070 4 22 263
1937178N23155 1937 20 WP MM NOT_NAMED 1937-06-30 21:00:00 NR 17.7000 131.000 main 824 752 __________O___ -1 17.7000 131.000 4 19 266
1937178N23155 1937 20 WP MM NOT_NAMED 1937-07-01 00:00:00 NR 17.6787 130.124 main 743 683 __________P___ -1 17.6787 130.124 4 16 270
1937178N23155 1937 20 WP MM NOT_NAMED 1937-07-01 03:00:00 NR 17.7011 129.360 main 683 626 __________P___ -1 17.7011 129.360 4 14 273
1937178N23155 1937 20 WP MM NOT_NAMED 1937-07-01 06:00:00 NR 17.7482 128.665 main 626 580 __________P___ -1 17.7482 128.665 4 13 274
1937178N23155 1937 20 WP MM NOT_NAMED 1937-07-01 09:00:00 NR 17.8000 128.000 main 580 517 __________O___ -1 17.8000 128.000 4 13 272
1937178N23155 1937 20 WP MM NOT_NAMED 1937-07-01 12:00:00 NR 17.8003 127.266 main 517 444 __________P___ -1 17.8003 127.266 4 14 270
1937178N23155 1937 20 WP MM NOT_NAMED 1937-07-01 15:00:00 NR 17.8048 126.559 main 444 371 __________P___ -1 17.8048 126.559 4 13 271
1937178N23155 1937 20 WP MM NOT_NAMED 1937-07-01 18:00:00 NR 17.8318 125.898 main 371 313 __________P___ -1 17.8318 125.898 4 12 275
1937178N23155 1937 20 WP MM NOT_NAMED 1937-07-01 21:00:00 NR 17.9000 125.300 main 313 266 __________O___ -1 17.9000 125.300 4 11 281
1937178N23155 1937 20 WP MM NOT_NAMED 1937-07-02 00:00:00 NR 18.0306 124.790 main 266 222 __________P___ -1 18.0306 124.790 4 10 288
1937178N23155 1937 20 WP MM NOT_NAMED 1937-07-02 03:00:00 NR 18.2034 124.340 main 211 168 __________P___ -1 18.2034 124.340 4 9 294
1937178N23155 1937 20 WP MM NOT_NAMED 1937-07-02 06:00:00 NR 18.3995 123.921 main 168 128 __________P___ -1 18.3995 123.921 4 9 296
1937178N23155 1937 20 WP MM NOT_NAMED 1937-07-02 09:00:00 NR 18.6000 123.500 main 128 86 __________O___ -1 18.6000 123.500 4 9 294
1937178N23155 1937 20 WP MM NOT_NAMED 1937-07-02 12:00:00 NR 18.7871 123.020 main 86 64 __________P___ -1 18.7871 123.020 4 10 292
1937178N23155 1937 20 WP MM NOT_NAMED 1937-07-02 15:00:00 NR 18.9724 122.535 main 70 67 __________P___ -1 18.9724 122.535 4 10 292
1937178N23155 1937 20 WP MM NOT_NAMED 1937-07-02 18:00:00 NR 19.1465 122.058 main 78 78 __________P___ -1 19.1465 122.058 4 9 290
1937178N23155 1937 20 WP MM NOT_NAMED 1937-07-02 21:00:00 NR 19.3000 121.600 main 91 89 __________O___ -1 19.3000 121.600 4 8 286
1937178N23155 1937 20 WP MM NOT_NAMED 1937-07-03 00:00:00 NR 19.3717 121.209 main 94 89 __________P___ -1 19.3717 121.209 4 7 280
1937178N23155 1937 20 WP MM NOT_NAMED 1937-07-03 03:00:00 NR 19.4309 120.835 main 89 89 __________P___ -1 19.4309 120.835 4 7 282
1937178N23155 1937 20 WP MM NOT_NAMED 1937-07-03 06:00:00 NR 19.5247 120.443 main 109 109 __________P___ -1 19.5247 120.443 4 8 289
1937178N23155 1937 20 WP MM NOT_NAMED 1937-07-03 09:00:00 NR 19.7000 120.000 main 149 149 __________O___ -1 19.7000 120.000 4 11 296
1937178N23155 1937 20 WP MM NOT_NAMED 1937-07-03 12:00:00 NR 20.0195 119.379 main 214 214 __________P___ -1 20.0195 119.379 4 14 301
1937178N23155 1937 20 WP MM NOT_NAMED 1937-07-03 15:00:00 NR 20.4200 118.714 main 266 266 __________P___ -1 20.4200 118.714 4 15 305
1937178N23155 1937 20 WP MM NOT_NAMED 1937-07-03 18:00:00 NR 20.8602 118.091 main 277 211 __________P___ -1 20.8602 118.091 4 14 310
1937178N23155 1937 20 WP MM NOT_NAMED 1937-07-03 21:00:00 NR 21.3000 117.600 main 211 172 __________O___ -1 21.3000 117.600 4 10 322
1937178N23155 1937 20 WP MM NOT_NAMED 1937-07-04 00:00:00 NR 21.6314 117.433 main 172 145 __________P___ -1 21.6314 117.433 4 7 344
1937178N23155 1937 20 WP MM NOT_NAMED 1937-07-04 03:00:00 NR 21.9647 117.393 main 136 114 __________P___ -1 21.9647 117.393 4 7 355
1937178N23155 1937 20 WP MM NOT_NAMED 1937-07-04 06:00:00 NR 22.3407 117.357 main 114 69 __________P___ -1 22.3407 117.357 4 9 348
1937178N23155 1937 20 WP MM NOT_NAMED 1937-07-04 09:00:00 NR 22.8000 117.200 main 69 0 __________O___ -1 22.8000 117.200 4 13 329
1937178N23155 1937 20 WP MM NOT_NAMED 1937-07-04 12:00:00 NR 23.4527 116.645 main 0 0 __________P___ -1 23.4527 116.645 4 18 321
1937178N23155 1937 20 WP MM NOT_NAMED 1937-07-04 15:00:00 NR 24.1770 115.965 main 0 0 __________P___ -1 24.1770 115.965 4 19 319
1937178N23155 1937 20 WP MM NOT_NAMED 1937-07-04 18:00:00 NR 24.8872 115.302 main 0 0 __________P___ -1 24.8872 115.302 4 17 321
1937178N23155 1937 20 WP MM NOT_NAMED 1937-07-04 21:00:00 NR 25.5000 114.800 main 0 0 __________O___ -1 25.5000 114.800 4 12 327
1937178N23155 1937 20 WP MM NOT_NAMED 1937-07-05 00:00:00 NR 25.9089 114.555 main 0 0 __________P___ -1 25.9089 114.555 4 8 340
1937178N23155 1937 20 WP MM NOT_NAMED 1937-07-05 03:00:00 NR 26.2158 114.508 main 0 0 __________P___ -1 26.2158 114.508 4 6 9
1937178N23155 1937 20 WP MM NOT_NAMED 1937-07-05 06:00:00 NR 26.4650 114.657 main 0 0 __________P___ -1 26.4650 114.657 4 7 42
1937178N23155 1937 20 WP MM NOT_NAMED 1937-07-05 09:00:00 NR 26.7000 115.000 main 0 0 __________O___ -1 26.7000 115.000 7 10 59
1937178N23155 1937 20 WP MM NOT_NAMED 1937-07-05 12:00:00 NR 26.9661 115.600 main 0 0 __________P___ -1 26.9661 115.600 7 13 67
1937178N23155 1937 20 WP MM NOT_NAMED 1937-07-05 15:00:00 NR 27.2263 116.367 main 0 0 __________P___ -1 27.2263 116.367 7 15 69
1937178N23155 1937 20 WP MM NOT_NAMED 1937-07-05 18:00:00 NR 27.4975 117.150 main 0 0 __________P___ -1 27.4975 117.150 7 14 66
1937178N23155 1937 20 WP MM NOT_NAMED 1937-07-05 21:00:00 NR 27.8000 117.800 main 0 0 __________O___ -1 27.8000 117.800 7 11 55
1937178N23155 1937 20 WP MM NOT_NAMED 1937-07-06 00:00:00 NR 28.1506 118.201 main 0 0 __________P___ -1 28.1506 118.201 7 9 35
1937178N23155 1937 20 WP MM NOT_NAMED 1937-07-06 03:00:00 NR 28.5432 118.388 main 0 0 __________P___ -1 28.5432 118.388 7 8 14
1937178N23155 1937 20 WP MM NOT_NAMED 1937-07-06 06:00:00 NR 28.9644 118.430 main 0 0 __________P___ -1 28.9644 118.430 7 9 1
1937178N23155 1937 20 WP MM NOT_NAMED 1937-07-06 09:00:00 NR 29.4000 118.400 main 0 __________O___ -1 29.4000 118.400 7 9 0

デジタル台風データ・検索

IBTrACS Databaseについて

本データベースは、米国NOAAが公開する1842年以降の世界の熱帯低気圧のベストトラックデータアーカイブInternational Best Track Archive for Climate Stewardship (IBTrACS)を、ウェブで閲覧しやすい形式に変換したものです。

最終更新日:2021-10-08